Time;durP1;ratioP1;P1;durP2;ratioP2;P2;SDS_P1;SDS_P2;PMS_P1;PMS_P2;Temp;Humidity;BMP_temperature;BMP_pressure;BME280_temperature;BME280_humidity;BME280_pressure;Samples;Min_cycle;Max_cycle;Signal;HPM_P1;HPM_P2
2021/11/23 00:00:47;;;;;;;14.85;9.63;;;;;;;1.26;69.40;101717.19;5012216;28;20146;-70
2021/11/23 00:03:17;;;;;;;17.77;10.18;;;;;;;1.27;69.84;101712.53;5012093;28;20491;-70
2021/11/23 00:05:45;;;;;;;17.50;10.52;;;;;;;1.30;70.51;101718.41;5012022;28;20054;-70
2021/11/23 00:08:13;;;;;;;17.17;9.90;;;;;;;1.25;70.74;101720.97;5013395;28;20049;-70
2021/11/23 00:10:43;;;;;;;17.30;10.55;;;;;;;1.30;70.94;101723.03;5015797;28;20053;-70
2021/11/23 00:13:12;;;;;;;17.75;10.63;;;;;;;1.33;70.40;101717.97;5015784;28;20053;-70
2021/11/23 00:15:40;;;;;;;18.50;11.02;;;;;;;1.31;70.36;101719.25;5016549;28;20061;-70
2021/11/23 00:18:10;;;;;;;19.45;11.63;;;;;;;1.33;70.32;101715.22;5016198;28;20513;-70
2021/11/23 00:20:38;;;;;;;;;;;;;;;1.25;70.29;101725.63;5016506;28;20490;-70
2021/11/23 00:23:05;;;;;;;14.60;9.70;;;;;;;1.24;70.67;101719.31;5015977;28;20290;-70
2021/11/23 00:25:34;;;;;;;15.73;9.93;;;;;;;1.25;70.10;101714.66;5015902;28;20050;-70
2021/11/23 00:28:03;;;;;;;17.20;11.27;;;;;;;1.25;69.84;101726.47;5015835;28;20395;-70
2021/11/23 00:30:30;;;;;;;15.77;9.95;;;;;;;1.24;69.85;101723.94;5015755;28;20427;-70
2021/11/23 00:32:59;;;;;;;15.40;10.18;;;;;;;1.23;70.04;101722.25;5012130;28;20458;-70
2021/11/23 00:35:27;;;;;;;18.15;11.07;;;;;;;1.21;70.52;101709.59;5015750;28;20419;-70
2021/11/23 00:37:55;;;;;;;14.70;10.32;;;;;;;1.23;69.98;101711.28;5015298;28;20050;-70
2021/11/23 00:40:23;;;;;;;17.95;10.77;;;;;;;1.24;69.78;101723.94;5014841;28;20057;-70
2021/11/23 00:42:51;;;;;;;19.73;11.07;;;;;;;1.24;69.58;101723.94;5014736;28;20080;-70
2021/11/23 00:45:20;;;;;;;16.10;10.20;;;;;;;1.19;70.14;101722.69;5014320;28;20050;-70
2021/11/23 00:47:48;;;;;;;18.55;10.48;;;;;;;1.13;70.26;101723.56;4995867;28;20055;-70
2021/11/23 00:50:16;;;;;;;18.40;11.65;;;;;;;1.16;69.75;101712.16;4997822;28;20057;-70
2021/11/23 00:52:44;;;;;;;17.77;10.57;;;;;;;1.19;69.96;101716.38;5014585;28;20050;-70
2021/11/23 00:55:15;;;;;;;15.35;10.13;;;;;;;1.19;69.84;101706.22;5014805;28;20054;-70
2021/11/23 00:57:43;;;;;;;17.00;10.27;;;;;;;1.15;69.87;101713.22;5014805;28;20430;-70
2021/11/23 01:00:13;;;;;;;17.02;10.48;;;;;;;1.14;70.32;101713.47;5014604;28;20068;-70
2021/11/23 01:02:42;;;;;;;19.40;10.93;;;;;;;1.14;70.02;101708.81;5014225;28;20065;-70
2021/11/23 01:05:10;;;;;;;16.65;10.00;;;;;;;1.15;69.61;101715.97;5014408;28;20076;-70
2021/11/23 01:07:37;;;;;;;16.83;10.68;;;;;;;1.16;70.17;101708.59;5015154;28;20056;-70
2021/11/23 01:10:08;;;;;;;15.30;10.10;;;;;;;1.16;69.93;101705.84;5014905;28;20053;-70
2021/11/23 01:12:36;;;;;;;15.98;10.73;;;;;;;1.17;69.55;101702.84;5014697;28;20053;-70
2021/11/23 01:15:04;;;;;;;18.60;11.52;;;;;;;1.17;69.45;101696.53;5014750;28;20422;-70
2021/11/23 01:17:32;;;;;;;17.52;10.65;;;;;;;1.15;69.22;101707.72;5014685;28;20053;-70
2021/11/23 01:20:01;;;;;;;17.15;11.40;;;;;;;1.14;69.52;101706.06;5014878;28;20058;-70
2021/11/23 01:22:30;;;;;;;17.98;11.02;;;;;;;1.15;69.25;101707.72;5014308;28;20054;-70
2021/11/23 01:24:58;;;;;;;16.83;10.80;;;;;;;1.13;70.07;101690.63;5014287;28;20509;-70
2021/11/23 01:27:25;;;;;;;18.95;12.20;;;;;;;1.12;69.83;101699.13;5014550;28;20050;-70
2021/11/23 01:29:52;;;;;;;19.80;11.50;;;;;;;1.14;70.01;101695.09;5014298;28;20057;-70
2021/11/23 01:32:20;;;;;;;17.48;10.48;;;;;;;1.14;69.81;101703.31;5013732;28;20507;-70
2021/11/23 01:34:47;;;;;;;18.88;12.27;;;;;;;1.19;70.25;101694.41;5014072;28;20057;-70
2021/11/23 01:37:16;;;;;;;16.83;11.10;;;;;;;1.20;70.02;101696.09;5014538;28;20065;-70
2021/11/23 01:39:43;;;;;;;16.80;11.32;;;;;;;1.17;70.03;101691.03;5013784;28;20422;-69
2021/11/23 01:42:11;;;;;;;16.00;10.90;;;;;;;1.18;69.90;101696.31;5013587;28;20065;-69
2021/11/23 01:44:39;;;;;;;16.98;11.25;;;;;;;1.17;70.10;101691.88;5014031;28;20483;-69
2021/11/23 01:47:06;;;;;;;17.83;12.25;;;;;;;1.16;70.49;101694.88;5013508;28;20058;-69
2021/11/23 01:49:34;;;;;;;19.90;11.27;;;;;;;1.16;70.07;101694.88;5014235;28;20057;-69
2021/11/23 01:52:05;;;;;;;16.48;10.90;;;;;;;1.20;70.26;101704.34;5013220;28;20061;-69
2021/11/23 01:54:35;;;;;;;15.98;11.55;;;;;;;1.19;69.81;101699.91;4994516;28;20061;-70
2021/11/23 01:57:03;;;;;;;18.67;11.02;;;;;;;1.17;69.50;101700.09;4994100;28;20054;-69
2021/11/23 01:59:30;;;;;;;18.55;11.80;;;;;;;1.18;69.67;101698.22;5008992;28;20058;-69
2021/11/23 02:01:58;;;;;;;17.92;11.23;;;;;;;1.18;69.23;101698.22;5013466;28;20061;-69
2021/11/23 02:04:25;;;;;;;17.52;11.02;;;;;;;1.20;69.49;101704.34;5013588;28;20057;-69
2021/11/23 02:06:52;;;;;;;18.08;11.63;;;;;;;1.21;69.28;101706.00;5014091;28;20054;-69
2021/11/23 02:09:20;;;;;;;20.05;12.10;;;;;;;1.18;69.82;101710.03;5013719;28;20426;-69
2021/11/23 02:11:50;;;;;;;20.80;11.55;;;;;;;1.16;69.72;101705.84;5013821;28;20061;-69
2021/11/23 02:14:19;;;;;;;;;;;;;;;1.07;69.64;101707.16;5014173;28;20072;-69
2021/11/23 02:16:46;;;;;;;16.83;11.02;;;;;;;1.08;70.29;101706.94;5013803;28;19929;-69
2021/11/23 02:19:14;;;;;;;17.88;11.48;;;;;;;1.11;70.33;101711.97;5013071;28;20518;-69
2021/11/23 02:21:42;;;;;;;18.63;11.57;;;;;;;1.13;70.62;101711.75;5013580;28;20053;-69
2021/11/23 02:24:10;;;;;;;17.88;11.65;;;;;;;1.18;69.73;101700.97;5013090;28;20053;-69
2021/11/23 02:26:37;;;;;;;17.80;11.30;;;;;;;1.21;70.14;101700.50;5013544;28;20050;-69
2021/11/23 02:29:05;;;;;;;20.15;12.38;;;;;;;1.20;69.68;101702.44;5012719;28;20414;-69
2021/11/23 02:31:32;;;;;;;16.27;10.90;;;;;;;1.18;70.21;101700.97;5012722;28;20054;-69
2021/11/23 02:33:59;;;;;;;18.38;12.77;;;;;;;1.23;70.08;101700.31;5013122;28;20057;-69
2021/11/23 02:36:27;;;;;;;17.90;10.93;;;;;;;1.15;70.60;101698.66;5012950;28;20487;-69
2021/11/23 02:38:56;;;;;;;18.02;10.85;;;;;;;1.26;70.31;101697.09;5012642;28;20054;-69
2021/11/23 02:41:23;;;;;;;18.20;11.77;;;;;;;1.31;69.87;101700.03;5013112;28;20049;-69
2021/11/23 02:43:51;;;;;;;19.48;11.68;;;;;;;1.30;69.93;101690.97;5012861;28;20046;-69
2021/11/23 02:46:18;;;;;;;17.38;11.00;;;;;;;1.30;69.98;101690.09;5013101;28;20045;-69
2021/11/23 02:48:46;;;;;;;17.25;11.23;;;;;;;1.33;69.36;101681.44;5012284;28;20691;-69
2021/11/23 02:51:15;;;;;;;20.02;12.50;;;;;;;1.27;69.84;101677.69;5012925;28;20557;-69
2021/11/23 02:53:43;;;;;;;22.85;13.25;;;;;;;1.31;69.87;101689.88;5013094;28;20070;-69
2021/11/23 02:56:12;;;;;;;18.10;11.60;;;;;;;1.32;70.07;101687.97;5013202;28;20054;-69
2021/11/23 02:58:40;;;;;;;19.58;11.98;;;;;;;1.26;69.60;101683.38;5012846;28;20054;-69
2021/11/23 03:01:11;;;;;;;19.17;12.02;;;;;;;1.31;69.57;101697.28;5012541;28;20384;-69
2021/11/23 03:03:39;;;;;;;21.00;12.65;;;;;;;1.30;69.79;101690.97;5012890;28;20057;-69
2021/11/23 03:06:06;;;;;;;20.77;12.05;;;;;;;1.31;70.10;101689.88;5012241;28;20050;-69
2021/11/23 03:08:34;;;;;;;21.25;12.65;;;;;;;1.32;70.21;101698.97;5012908;28;20056;-69
2021/11/23 03:11:01;;;;;;;18.63;12.00;;;;;;;1.35;69.92;101698.53;5012533;28;20073;-69
2021/11/23 03:13:30;;;;;;;20.85;12.68;;;;;;;1.37;69.76;101690.91;5012799;28;20054;-69
2021/11/23 03:15:58;;;;;;;19.10;11.90;;;;;;;1.42;70.00;101693.81;5012532;28;20054;-69
2021/11/23 03:18:25;;;;;;;17.90;11.32;;;;;;;1.47;70.36;101679.41;5012382;28;20414;-69
2021/11/23 03:20:52;;;;;;;20.05;12.30;;;;;;;1.53;70.43;101671.13;5011868;28;20061;-69
2021/11/23 03:23:20;;;;;;;17.20;10.75;;;;;;;1.59;71.01;101681.19;5012486;28;20065;-69
2021/11/23 03:25:48;;;;;;;20.27;11.45;;;;;;;1.70;71.48;101665.91;5012775;28;20165;-69
2021/11/23 03:28:15;;;;;;;14.57;10.35;;;;;;;1.84;71.03;101677.59;5012074;28;20053;-69
2021/11/23 03:30:45;;;;;;;14.45;10.30;;;;;;;1.95;70.79;101676.88;5012645;28;20483;-69
2021/11/23 03:33:12;;;;;;;21.35;12.15;;;;;;;2.01;70.69;101675.94;5012703;28;20054;-69
2021/11/23 03:35:41;;;;;;;17.92;10.80;;;;;;;2.09;70.16;101676.72;5012394;28;20057;-69
2021/11/23 03:38:13;;;;;;;14.82;10.15;;;;;;;2.08;70.48;101675.03;5012139;28;20057;-70
2021/11/23 03:40:41;;;;;;;18.23;10.73;;;;;;;2.23;70.26;101681.00;5012551;28;20050;-70
2021/11/23 03:43:10;;;;;;;16.48;9.95;;;;;;;2.37;70.26;101679.78;5013262;28;20506;-70
2021/11/23 03:45:40;;;;;;;14.40;10.00;;;;;;;2.45;69.66;101670.38;5016243;28;20056;-70
2021/11/23 03:48:09;;;;;;;16.50;10.82;;;;;;;2.51;69.98;101674.09;5016202;28;20045;-70
2021/11/23 03:50:38;;;;;;;14.65;9.65;;;;;;;2.58;69.41;101672.09;5016334;28;20057;-70
2021/11/23 03:53:05;;;;;;;15.45;11.07;;;;;;;2.63;69.24;101661.25;5016143;28;20221;-70
2021/11/23 03:55:35;;;;;;;14.00;9.55;;;;;;;2.66;69.93;101666.28;5016136;28;20061;-69
2021/11/23 03:58:03;;;;;;;16.15;10.40;;;;;;;2.68;69.58;101663.31;5015824;28;20057;-69
2021/11/23 04:00:33;;;;;;;15.45;10.43;;;;;;;2.77;69.66;101650.91;5015968;28;20426;-69
2021/11/23 04:03:01;;;;;;;15.02;10.43;;;;;;;2.79;70.65;101657.00;5016095;28;20088;-69
2021/11/23 04:05:30;;;;;;;16.40;10.55;;;;;;;2.87;70.10;101662.19;5015976;28;20506;-69
2021/11/23 04:07:57;;;;;;;15.95;10.48;;;;;;;3.00;69.59;101666.66;5015592;28;20061;-69
2021/11/23 04:10:25;;;;;;;14.90;9.48;;;;;;;3.11;69.91;101654.00;5016024;28;20414;-69
2021/11/23 04:12:53;;;;;;;14.45;9.48;;;;;;;3.20;69.74;101650.69;5015446;28;20058;-69
2021/11/23 04:15:20;;;;;;;16.10;10.18;;;;;;;3.23;69.39;101652.97;5015767;28;20449;-69
2021/11/23 04:17:50;;;;;;;15.85;9.90;;;;;;;3.32;68.95;101649.84;5014985;28;20073;-70
2021/11/23 04:20:17;;;;;;;13.95;9.25;;;;;;;3.33;68.35;101654.28;5015627;28;20053;-70
2021/11/23 04:22:46;;;;;;;15.57;10.98;;;;;;;3.36;69.01;101659.31;5015843;28;20053;-70
2021/11/23 04:25:14;;;;;;;15.10;9.75;;;;;;;3.44;69.37;101653.47;5015420;28;20062;-70
2021/11/23 04:27:41;;;;;;;14.45;9.95;;;;;;;3.50;68.28;101654.44;5015545;28;20052;-70
2021/11/23 04:30:12;;;;;;;14.05;10.18;;;;;;;3.54;68.25;101644.63;5016252;28;20054;-70
2021/11/23 04:32:40;;;;;;;17.00;10.63;;;;;;;3.56;68.15;101643.28;5015364;28;20057;-70
2021/11/23 04:35:08;;;;;;;15.38;9.93;;;;;;;3.60;68.57;101638.16;5015626;28;20431;-70
2021/11/23 04:37:35;;;;;;;16.95;10.32;;;;;;;3.46;68.55;101645.78;5015519;28;20414;-70
2021/11/23 04:40:05;;;;;;;16.95;10.65;;;;;;;3.41;69.86;101651.19;5015577;28;20058;-70
2021/11/23 04:42:32;;;;;;;;;;;;;;;3.60;69.33;101644.50;5015523;28;20053;-70
2021/11/23 04:45:00;;;;;;;15.65;10.10;;;;;;;3.57;68.85;101642.22;5015628;28;19933;-70
2021/11/23 04:47:27;;;;;;;15.95;10.82;;;;;;;3.69;69.11;101641.38;5015687;28;20045;-70
2021/11/23 04:49:54;;;;;;;15.45;10.48;;;;;;;3.76;68.55;101647.59;4995712;28;20058;-70
2021/11/23 04:52:22;;;;;;;15.27;10.57;;;;;;;3.83;69.30;101642.81;4996141;28;20442;-70
2021/11/23 04:54:49;;;;;;;14.23;9.63;;;;;;;3.90;68.89;101637.19;4995434;28;20050;-70
2021/11/23 04:57:18;;;;;;;18.02;10.85;;;;;;;3.99;68.63;101641.25;4995479;28;20042;-70
2021/11/23 04:59:48;;;;;;;18.90;10.93;;;;;;;3.94;68.72;101644.72;5013799;28;20050;-70
2021/11/23 05:02:15;;;;;;;;;;;;;;;3.98;68.56;101645.09;5015327;28;20068;-70
2021/11/23 05:04:43;;;;;;;16.65;11.18;;;;;;;4.01;68.35;101644.59;5015400;28;19944;-70
2021/11/23 05:07:10;;;;;;;17.02;10.45;;;;;;;4.04;67.98;101644.13;5015031;28;20065;-70
2021/11/23 05:09:38;;;;;;;18.40;10.73;;;;;;;4.05;67.82;101646.66;5014531;28;20058;-70
2021/11/23 05:12:06;;;;;;;19.52;11.77;;;;;;;4.16;68.46;101649.59;5015438;28;20399;-70
2021/11/23 05:14:35;;;;;;;18.27;11.23;;;;;;;4.15;68.52;101645.19;5015322;28;20501;-70
2021/11/23 05:17:02;;;;;;;15.38;10.27;;;;;;;4.20;68.58;101642.53;5015109;28;20058;-69
2021/11/23 05:19:30;;;;;;;16.20;10.25;;;;;;;4.28;68.51;101642.16;5014887;28;20524;-70
2021/11/23 05:21:57;;;;;;;16.45;10.75;;;;;;;4.20;68.42;101632.34;5014931;28;20050;-70
2021/11/23 05:24:24;;;;;;;14.80;9.93;;;;;;;4.35;68.23;101642.03;5014606;28;20061;-70
2021/11/23 05:26:52;;;;;;;15.48;9.50;;;;;;;4.41;68.51;101639.13;5014643;28;20411;-70
2021/11/23 05:29:19;;;;;;;16.73;10.85;;;;;;;4.38;68.48;101638.78;5014597;28;20049;-70
2021/11/23 05:31:48;;;;;;;17.48;10.07;;;;;;;4.44;68.99;101644.16;5014460;28;20511;-70
2021/11/23 05:34:16;;;;;;;16.17;10.52;;;;;;;4.55;68.89;101628.63;5014763;28;20407;-70
2021/11/23 05:36:46;;;;;;;15.40;10.77;;;;;;;4.42;68.89;101632.53;5014782;28;20050;-70
2021/11/23 05:39:13;;;;;;;14.93;10.20;;;;;;;4.55;68.29;101630.56;5014412;28;20058;-70
2021/11/23 05:41:41;;;;;;;14.35;9.98;;;;;;;4.54;67.80;101626.13;5014217;28;20065;-70
2021/11/23 05:44:10;;;;;;;15.95;10.20;;;;;;;4.58;68.02;101632.84;5014529;28;20514;-70
2021/11/23 05:46:37;;;;;;;14.88;10.10;;;;;;;4.64;68.41;101626.31;5014206;28;20054;-70
2021/11/23 05:49:06;;;;;;;16.65;10.13;;;;;;;4.71;68.42;101632.53;5013977;28;20050;-70
2021/11/23 05:51:34;;;;;;;16.20;9.97;;;;;;;4.75;68.48;101632.91;5014529;28;20050;-70
2021/11/23 05:54:01;;;;;;;15.00;9.57;;;;;;;4.83;68.58;101625.03;5013703;28;20054;-70
2021/11/23 05:56:31;;;;;;;15.68;9.80;;;;;;;4.90;68.30;101635.09;5014016;28;20483;-70
2021/11/23 05:58:58;;;;;;;;;;;;;;;4.92;68.43;101621.88;5014736;28;20065;-70
2021/11/23 06:01:25;;;;;;;15.88;9.43;;;;;;;4.92;67.74;101619.13;5014208;28;19943;-71
2021/11/23 06:03:53;;;;;;;14.23;10.23;;;;;;;4.91;67.81;101631.25;5013752;28;20085;-70
2021/11/23 06:06:22;;;;;;;14.35;10.00;;;;;;;4.95;67.63;101624.13;5012134;28;20058;-70
2021/11/23 06:08:49;;;;;;;14.18;9.43;;;;;;;4.94;67.44;101628.81;5013796;28;20426;-71
2021/11/23 06:11:18;;;;;;;16.63;10.90;;;;;;;4.96;67.62;101618.38;5013660;28;20387;-70
2021/11/23 06:13:47;;;;;;;13.73;9.73;;;;;;;4.99;67.88;101630.84;5013709;28;20049;-70
2021/11/23 06:16:15;;;;;;;15.77;10.73;;;;;;;5.02;67.87;101622.06;5013511;28;20086;-70
2021/11/23 06:18:43;;;;;;;15.90;10.70;;;;;;;5.05;67.29;101618.81;5013680;28;20065;-70
2021/11/23 06:21:11;;;;;;;19.48;11.00;;;;;;;5.07;67.48;101619.38;5013330;28;20057;-70
2021/11/23 06:23:39;;;;;;;16.15;11.43;;;;;;;5.07;67.56;101627.69;5013633;28;20057;-70
2021/11/23 06:26:08;;;;;;;15.63;10.70;;;;;;;5.01;68.28;101623.16;5013461;28;20495;-70
2021/11/23 06:28:35;;;;;;;16.88;10.82;;;;;;;5.13;67.93;101634.13;5013270;28;20054;-70
2021/11/23 06:31:03;;;;;;;19.17;12.70;;;;;;;5.21;67.46;101626.28;5013701;28;20050;-70
2021/11/23 06:33:30;;;;;;;16.33;11.75;;;;;;;5.04;68.24;101636.44;5012939;28;20065;-71
2021/11/23 06:35:57;;;;;;;18.00;11.75;;;;;;;4.98;68.46;101630.00;5013029;28;20065;-70
2021/11/23 06:38:25;;;;;;;20.50;12.80;;;;;;;4.64;69.58;101638.22;5011946;28;20422;-70
2021/11/23 06:40:54;;;;;;;17.52;11.82;;;;;;;5.02;68.99;101627.59;5008197;28;20486;-70
2021/11/23 06:43:22;;;;;;;18.00;12.00;;;;;;;5.15;68.90;101623.69;5013188;28;20494;-70
2021/11/23 06:45:49;;;;;;;18.38;11.50;;;;;;;5.27;68.95;101629.94;5012663;28;20053;-70
2021/11/23 06:48:16;;;;;;;17.38;11.90;;;;;;;5.30;68.72;101626.69;5012733;28;20060;-70
2021/11/23 06:50:45;;;;;;;17.05;11.88;;;;;;;5.34;68.69;101629.78;5012906;28;20061;-71
2021/11/23 06:53:12;;;;;;;19.65;14.50;;;;;;;5.24;69.59;101631.28;5009530;28;20061;-70
2021/11/23 06:55:41;;;;;;;19.75;13.73;;;;;;;5.28;69.33;101637.16;5011765;28;20053;-69
2021/11/23 06:58:11;;;;;;;19.50;12.93;;;;;;;5.45;69.48;101640.75;5012762;28;20046;-69
2021/11/23 07:00:39;;;;;;;17.73;12.45;;;;;;;5.55;69.50;101636.50;5012691;28;20056;-69
2021/11/23 07:03:08;;;;;;;18.45;12.35;;;;;;;5.59;69.17;101643.19;5012492;28;20057;-70
2021/11/23 07:05:35;;;;;;;22.67;13.43;;;;;;;5.65;68.99;101645.78;5012167;28;20505;-70
2021/11/23 07:08:03;;;;;;;19.77;13.20;;;;;;;5.73;68.99;101646.44;5011697;28;20045;-70
2021/11/23 07:10:31;;;;;;;23.60;13.23;;;;;;;5.80;69.12;101650.69;5007193;28;20050;-71
2021/11/23 07:12:59;;;;;;;19.15;12.98;;;;;;;5.87;69.17;101656.03;5004341;28;20050;-71
2021/11/23 07:15:28;;;;;;;19.77;13.20;;;;;;;5.82;68.79;101655.97;4994480;28;20065;-71
2021/11/23 07:17:56;;;;;;;20.40;13.55;;;;;;;5.91;69.07;101654.44;5012427;28;20072;-71
2021/11/23 07:20:23;;;;;;;21.98;13.80;;;;;;;5.77;69.71;101656.72;5011902;28;20050;-71
2021/11/23 07:22:51;;;;;;;18.25;12.38;;;;;;;5.93;69.15;101663.34;5012837;28;20510;-71
2021/11/23 07:25:18;;;;;;;19.58;13.15;;;;;;;5.86;69.65;101654.38;5010899;28;20050;-71
2021/11/23 07:27:46;;;;;;;18.67;13.23;;;;;;;6.00;69.37;101663.19;5012018;28;20046;-71
2021/11/23 07:30:14;;;;;;;21.48;13.57;;;;;;;6.03;68.77;101663.50;5012632;28;20475;-71
2021/11/23 07:32:42;;;;;;;23.10;13.68;;;;;;;6.03;69.20;101666.28;5012447;28;20518;-71
2021/11/23 07:35:10;;;;;;;20.25;14.40;;;;;;;6.13;68.90;101670.28;5012510;28;20058;-71
2021/11/23 07:37:40;;;;;;;21.20;13.40;;;;;;;6.13;68.96;101671.09;5012254;28;20486;-71
2021/11/23 07:40:09;;;;;;;;;;;;;;;6.16;69.79;101680.84;5010967;28;20122;-71
2021/11/23 07:42:39;;;;;;;24.80;14.57;;;;;;;6.23;68.79;101675.94;5011184;28;19932;-71
2021/11/23 07:45:07;;;;;;;24.67;16.00;;;;;;;6.31;69.07;101681.03;5012046;28;20066;-71
2021/11/23 07:47:35;;;;;;;22.27;15.23;;;;;;;6.35;69.63;101678.59;5012463;28;20458;-72
2021/11/23 07:50:04;;;;;;;25.33;16.92;;;;;;;6.38;69.78;101678.91;5011668;28;20054;-71
2021/11/23 07:52:32;;;;;;;30.08;20.02;;;;;;;6.37;69.24;101681.97;5011781;28;20053;-72
2021/11/23 07:54:59;;;;;;;32.60;21.15;;;;;;;6.42;69.50;101684.78;5011962;28;20411;-71
2021/11/23 07:57:27;;;;;;;27.05;19.85;;;;;;;6.47;70.22;101682.94;5012135;28;20064;-71
2021/11/23 07:59:55;;;;;;;28.83;19.52;;;;;;;6.38;69.94;101684.44;5012375;28;20054;-72
2021/11/23 08:02:22;;;;;;;25.90;17.88;;;;;;;6.47;70.13;101685.69;5012098;28;20057;-71
2021/11/23 08:04:49;;;;;;;28.17;18.83;;;;;;;6.38;70.36;101683.63;5011666;28;20052;-71
2021/11/23 08:07:20;;;;;;;27.52;17.65;;;;;;;6.47;70.07;101682.09;5011574;28;20077;-72
2021/11/23 08:09:47;;;;;;;28.45;18.48;;;;;;;6.64;70.94;101688.41;5009694;28;20056;-64
2021/11/23 08:12:14;;;;;;;24.63;15.45;;;;;;;6.74;70.30;101684.06;5004004;28;20395;-64
2021/11/23 08:14:42;;;;;;;28.13;17.27;;;;;;;6.49;70.98;101691.81;5008641;28;20418;-64
2021/11/23 08:17:10;;;;;;;26.38;18.17;;;;;;;6.62;70.20;101695.28;5006852;28;20057;-64
2021/11/23 08:19:37;;;;;;;32.42;18.02;;;;;;;6.45;71.39;101690.66;5010064;28;20487;-64
2021/11/23 08:22:04;;;;;;;29.27;17.30;;;;;;;6.69;70.55;101690.38;5010279;28;20062;-64
2021/11/23 08:24:33;;;;;;;30.85;17.92;;;;;;;6.70;71.15;101697.59;5008400;28;20061;-64
2021/11/23 08:27:01;;;;;;;27.37;18.53;;;;;;;6.59;71.07;101693.03;5007323;28;20072;-64
2021/11/23 08:29:28;;;;;;;29.98;19.25;;;;;;;6.60;71.66;101694.72;5010834;28;20050;-64
2021/11/23 08:31:56;;;;;;;29.88;19.85;;;;;;;6.89;71.87;101690.63;5013343;28;20065;-64
2021/11/23 08:34:23;;;;;;;35.45;22.70;;;;;;;6.79;71.19;101696.03;5013592;28;20054;-64
2021/11/23 08:36:51;;;;;;;39.67;25.08;;;;;;;6.80;71.71;101702.41;5013248;28;20062;-64
2021/11/23 08:39:21;;;;;;;38.55;23.55;;;;;;;6.50;72.40;101704.53;5007388;28;20060;-64
2021/11/23 08:41:50;;;;;;;36.42;22.38;;;;;;;6.68;72.67;101705.34;5013174;28;20588;-64
2021/11/23 08:44:17;;;;;;;34.75;20.33;;;;;;;6.99;71.40;101700.13;5013379;28;20423;-64
2021/11/23 08:46:45;;;;;;;34.35;20.02;;;;;;;6.88;71.00;101705.56;5015431;28;20046;-64
2021/11/23 08:49:13;;;;;;;30.55;20.70;;;;;;;6.78;71.36;101702.66;5017965;28;20076;-66
2021/11/23 08:51:42;;;;;;;31.70;20.45;;;;;;;6.77;71.81;101705.72;5013700;28;20057;-65
2021/11/23 08:54:09;;;;;;;37.17;22.23;;;;;;;6.88;71.36;101708.31;5011576;28;20065;-64
2021/11/23 08:56:38;;;;;;;31.88;20.83;;;;;;;6.80;71.33;101714.31;5008744;28;20053;-64
2021/11/23 08:59:10;;;;;;;31.20;20.10;;;;;;;6.56;71.59;101711.00;5012218;28;20392;-64
2021/11/23 09:01:39;;;;;;;34.85;22.02;;;;;;;6.66;71.88;101713.88;5011307;28;20054;-64
2021/11/23 09:04:06;;;;;;;35.47;22.65;;;;;;;6.67;72.25;101717.50;5007262;28;20060;-63
2021/11/23 09:06:39;;;;;;;38.92;23.83;;;;;;;6.69;72.59;101707.81;5013815;28;20076;-64
2021/11/23 09:09:08;;;;;;;32.30;21.70;;;;;;;6.65;72.21;101712.19;5010139;28;20054;-64
2021/11/23 09:11:37;;;;;;;33.42;21.98;;;;;;;6.50;72.65;101714.78;5011697;28;20061;-64
2021/11/23 09:14:08;;;;;;;32.37;21.90;;;;;;;6.75;72.37;101710.66;5009505;28;20063;-65
2021/11/23 09:16:36;;;;;;;32.58;20.70;;;;;;;6.83;72.35;101715.75;5012554;28;20076;-64
2021/11/23 09:19:05;;;;;;;32.17;21.65;;;;;;;6.57;72.46;101720.13;5009993;28;20049;-64
2021/11/23 09:21:33;;;;;;;31.20;21.93;;;;;;;6.87;72.74;101723.28;5012836;28;20061;-62
2021/11/23 09:24:01;;;;;;;32.63;20.30;;;;;;;6.77;72.12;101720.38;5010398;28;20058;-62
2021/11/23 09:26:29;;;;;;;29.02;19.98;;;;;;;6.86;72.21;101718.00;5009336;28;20261;-64
2021/11/23 09:28:57;;;;;;;32.25;21.75;;;;;;;6.94;72.61;101725.03;5010734;28;20089;-62
2021/11/23 09:31:26;;;;;;;36.95;22.52;;;;;;;6.96;72.41;101728.38;5008679;28;20054;-62
2021/11/23 09:33:54;;;;;;;34.80;23.55;;;;;;;6.95;72.59;101729.44;5009800;28;20053;-62
2021/11/23 09:36:21;;;;;;;33.33;21.75;;;;;;;7.08;71.55;101729.06;5011123;28;20065;-62
2021/11/23 09:38:49;;;;;;;34.97;22.55;;;;;;;7.36;70.87;101733.50;5012377;28;20053;-62
2021/11/23 09:41:16;;;;;;;36.40;23.13;;;;;;;6.81;73.09;101732.63;5013013;28;20050;-62
2021/11/23 09:43:44;;;;;;;35.67;22.60;;;;;;;7.23;71.96;101729.22;5009809;28;20053;-63
2021/11/23 09:46:11;;;;;;;33.55;21.75;;;;;;;7.47;71.27;101731.66;5012372;28;20060;-62
2021/11/23 09:48:43;;;;;;;36.28;24.63;;;;;;;7.32;71.89;101730.41;5013689;28;20426;-63
2021/11/23 09:51:14;;;;;;;38.97;24.70;;;;;;;7.44;71.75;101729.44;5012799;28;20053;-63
2021/11/23 09:53:42;;;;;;;36.22;23.13;;;;;;;7.58;70.98;101724.28;5014490;28;20057;-63
2021/11/23 09:56:09;;;;;;;33.58;22.60;;;;;;;7.56;70.97;101716.25;5010725;28;20053;-63
2021/11/23 09:58:36;;;;;;;36.47;24.73;;;;;;;7.43;71.15;101722.19;5023400;28;20597;-63
2021/11/23 10:01:07;;;;;;;33.97;22.83;;;;;;;7.39;71.33;101724.69;5012420;28;20506;-63
2021/11/23 10:03:35;;;;;;;40.00;27.08;;;;;;;7.66;71.05;101719.09;5011199;28;20073;-63
2021/11/23 10:06:13;;;;;;;38.00;24.45;;;;;;;7.73;71.08;101730.81;5012178;28;20060;-63
2021/11/23 10:08:42;;;;;;;35.92;22.65;;;;;;;7.70;70.42;101728.53;5010100;28;20049;-64
2021/11/23 10:11:10;;;;;;;38.25;23.77;;;;;;;7.78;70.46;101730.00;5011695;28;20053;-64
2021/11/23 10:13:43;;;;;;;36.17;23.02;;;;;;;7.65;70.98;101725.75;5011208;28;20057;-64
2021/11/23 10:16:11;;;;;;;35.08;23.08;;;;;;;7.76;70.39;101720.28;5010614;28;20050;-64
2021/11/23 10:18:40;;;;;;;36.28;23.20;;;;;;;7.57;71.43;101725.38;5012611;28;20398;-64
2021/11/23 10:21:11;;;;;;;38.40;23.48;;;;;;;7.55;71.57;101724.81;5009758;28;20483;-62
2021/11/23 10:23:41;;;;;;;41.40;24.65;;;;;;;7.48;71.03;101720.31;5002773;28;20061;-62
2021/11/23 10:26:13;;;;;;;37.53;23.25;;;;;;;7.46;71.34;101722.53;5008004;28;20056;-63
2021/11/23 10:28:43;;;;;;;34.17;21.55;;;;;;;7.51;71.27;101716.19;5008185;28;20049;-63
2021/11/23 10:31:13;;;;;;;35.47;23.63;;;;;;;7.50;71.17;101715.34;5011488;28;20058;-62
2021/11/23 10:33:42;;;;;;;34.28;21.05;;;;;;;7.80;71.03;101711.16;4971873;28;20499;-62
2021/11/23 10:36:15;;;;;;;30.23;20.90;;;;;;;7.67;70.43;101712.44;4968791;28;20058;-63
2021/11/23 10:38:43;;;;;;;34.72;21.55;;;;;;;7.79;70.79;101706.72;4968798;28;20057;-63
2021/11/23 10:41:13;;;;;;;32.90;21.45;;;;;;;7.69;71.59;101698.31;4968975;28;20053;-62
2021/11/23 10:43:41;;;;;;;;;;;;;;;7.99;70.53;101706.03;4971957;28;20055;-63
2021/11/23 10:46:22;;;;;;;31.30;20.95;;;;;;;7.98;69.71;101707.16;4969227;28;19930;-63
2021/11/23 10:48:53;;;;;;;31.83;21.50;;;;;;;8.00;70.23;101699.41;4969589;28;20054;-63
2021/11/23 10:51:23;;;;;;;32.38;21.52;;;;;;;8.03;69.90;101701.63;4972047;28;20054;-63
2021/11/23 10:53:51;;;;;;;;;;;;;;;8.14;69.39;101692.25;4971228;28;20123;-63
2021/11/23 10:56:20;;;;;;;30.13;20.23;;;;;;;7.99;70.11;101703.25;4972300;28;19929;-61
2021/11/23 10:58:50;;;;;;;29.40;21.15;;;;;;;8.14;69.60;101699.75;4965620;28;20062;-62
2021/11/23 11:01:19;;;;;;;33.33;22.15;;;;;;;8.23;70.51;101700.06;4967316;28;20050;-63
2021/11/23 11:03:48;;;;;;;28.02;20.88;;;;;;;8.39;70.07;101701.00;4966645;28;20051;-63
2021/11/23 11:06:16;;;;;;;29.13;20.65;;;;;;;8.28;69.70;101698.16;4970545;28;20075;-63
2021/11/23 11:08:47;;;;;;;29.42;20.90;;;;;;;8.50;69.79;101691.66;4968296;28;20047;-64
2021/11/23 11:11:17;;;;;;;29.90;19.27;;;;;;;8.65;68.94;101696.44;4967898;28;20051;-63
2021/11/23 11:13:48;;;;;;;27.25;19.67;;;;;;;8.45;68.71;101689.69;4967555;28;20051;-63
2021/11/23 11:16:17;;;;;;;27.83;19.80;;;;;;;8.58;68.97;101698.63;4967413;28;20061;-63
2021/11/23 11:19:03;;;;;;;27.30;19.38;;;;;;;8.63;67.64;101695.88;4968932;28;20058;-63
2021/11/23 11:21:31;;;;;;;28.58;21.60;;;;;;;8.28;69.60;101697.34;4964443;28;20047;-65
2021/11/23 11:24:31;;;;;;;29.70;21.15;;;;;;;8.30;69.61;101692.38;4970135;28;20484;-64